sensor_id;sensor_type;location;lat;lon;timestamp;temperature;humidity
814;DHT22;389;48.710;9.392;2022-07-09T00:01:46;13.90;95.70
814;DHT22;389;48.710;9.392;2022-07-09T00:04:12;14.00;95.80
814;DHT22;389;48.710;9.392;2022-07-09T00:06:45;13.90;95.70
814;DHT22;389;48.710;9.392;2022-07-09T00:09:11;13.90;95.90
814;DHT22;389;48.710;9.392;2022-07-09T00:11:50;13.70;95.90
814;DHT22;389;48.710;9.392;2022-07-09T00:14:18;13.70;96.00
814;DHT22;389;48.710;9.392;2022-07-09T00:16:43;13.60;96.10
814;DHT22;389;48.710;9.392;2022-07-09T00:19:09;13.70;96.30
814;DHT22;389;48.710;9.392;2022-07-09T00:21:34;13.70;96.50
814;DHT22;389;48.710;9.392;2022-07-09T00:24:00;13.50;96.40
814;DHT22;389;48.710;9.392;2022-07-09T00:26:26;13.50;96.40
814;DHT22;389;48.710;9.392;2022-07-09T00:28:51;13.40;96.50
814;DHT22;389;48.710;9.392;2022-07-09T00:31:17;13.40;96.70
814;DHT22;389;48.710;9.392;2022-07-09T00:33:42;13.40;96.80
814;DHT22;389;48.710;9.392;2022-07-09T00:36:08;13.40;96.90
814;DHT22;389;48.710;9.392;2022-07-09T00:38:33;13.30;97.00
814;DHT22;389;48.710;9.392;2022-07-09T00:40:59;13.30;97.20
814;DHT22;389;48.710;9.392;2022-07-09T00:43:25;13.20;97.30
814;DHT22;389;48.710;9.392;2022-07-09T00:45:50;13.30;97.40
814;DHT22;389;48.710;9.392;2022-07-09T00:48:16;13.40;97.40
814;DHT22;389;48.710;9.392;2022-07-09T00:50:43;13.20;97.50
814;DHT22;389;48.710;9.392;2022-07-09T00:53:16;13.20;97.60
814;DHT22;389;48.710;9.392;2022-07-09T00:55:43;13.20;97.50
814;DHT22;389;48.710;9.392;2022-07-09T00:58:11;13.10;97.70
814;DHT22;389;48.710;9.392;2022-07-09T01:00:43;13.00;97.70
814;DHT22;389;48.710;9.392;2022-07-09T01:03:09;13.00;97.80
814;DHT22;389;48.710;9.392;2022-07-09T01:05:34;13.00;97.80
814;DHT22;389;48.710;9.392;2022-07-09T01:08:04;13.00;97.90
814;DHT22;389;48.710;9.392;2022-07-09T01:10:31;12.90;98.00
814;DHT22;389;48.710;9.392;2022-07-09T01:12:57;12.90;98.10
814;DHT22;389;48.710;9.392;2022-07-09T01:15:23;12.90;98.00
814;DHT22;389;48.710;9.392;2022-07-09T01:18:16;12.90;98.10
814;DHT22;389;48.710;9.392;2022-07-09T01:20:42;12.90;98.10
814;DHT22;389;48.710;9.392;2022-07-09T01:23:08;12.80;98.00
814;DHT22;389;48.710;9.392;2022-07-09T01:25:41;12.80;98.20
814;DHT22;389;48.710;9.392;2022-07-09T01:28:09;12.70;98.40
814;DHT22;389;48.710;9.392;2022-07-09T01:30:37;12.80;98.50
814;DHT22;389;48.710;9.392;2022-07-09T01:33:03;12.70;98.40
814;DHT22;389;48.710;9.392;2022-07-09T01:35:29;12.70;98.40
814;DHT22;389;48.710;9.392;2022-07-09T01:37:55;12.70;98.40
814;DHT22;389;48.710;9.392;2022-07-09T01:40:21;12.70;98.40
814;DHT22;389;48.710;9.392;2022-07-09T01:42:47;12.60;98.30
814;DHT22;389;48.710;9.392;2022-07-09T01:45:14;12.60;98.50
814;DHT22;389;48.710;9.392;2022-07-09T01:47:40;12.60;98.70
814;DHT22;389;48.710;9.392;2022-07-09T01:50:06;12.60;98.70
814;DHT22;389;48.710;9.392;2022-07-09T01:52:32;12.50;98.70
814;DHT22;389;48.710;9.392;2022-07-09T01:54:58;12.50;98.70
814;DHT22;389;48.710;9.392;2022-07-09T01:57:24;12.50;98.70
814;DHT22;389;48.710;9.392;2022-07-09T01:59:50;12.50;98.70
814;DHT22;389;48.710;9.392;2022-07-09T02:02:15;12.60;98.80
814;DHT22;389;48.710;9.392;2022-07-09T02:04:51;12.60;98.90
814;DHT22;389;48.710;9.392;2022-07-09T02:07:16;12.40;98.80
814;DHT22;389;48.710;9.392;2022-07-09T02:09:42;12.30;98.80
814;DHT22;389;48.710;9.392;2022-07-09T02:12:08;12.30;98.80
814;DHT22;389;48.710;9.392;2022-07-09T02:14:34;12.30;98.80
814;DHT22;389;48.710;9.392;2022-07-09T02:17:00;12.30;98.90
814;DHT22;389;48.710;9.392;2022-07-09T02:19:25;12.30;99.30
814;DHT22;389;48.710;9.392;2022-07-09T02:21:51;12.20;99.00
814;DHT22;389;48.710;9.392;2022-07-09T02:24:16;12.20;99.10
814;DHT22;389;48.710;9.392;2022-07-09T02:26:42;12.20;99.20
814;DHT22;389;48.710;9.392;2022-07-09T02:29:08;12.20;99.20
814;DHT22;389;48.710;9.392;2022-07-09T02:31:33;12.30;99.30
814;DHT22;389;48.710;9.392;2022-07-09T02:33:59;12.20;99.20
814;DHT22;389;48.710;9.392;2022-07-09T02:36:24;12.20;99.20
814;DHT22;389;48.710;9.392;2022-07-09T02:38:51;12.10;99.20
814;DHT22;389;48.710;9.392;2022-07-09T02:41:16;12.10;99.30
814;DHT22;389;48.710;9.392;2022-07-09T02:43:42;12.20;99.50
814;DHT22;389;48.710;9.392;2022-07-09T02:46:09;12.00;99.50
814;DHT22;389;48.710;9.392;2022-07-09T02:48:35;12.00;99.50
814;DHT22;389;48.710;9.392;2022-07-09T02:51:00;12.10;99.60
814;DHT22;389;48.710;9.392;2022-07-09T02:53:26;12.00;99.70
814;DHT22;389;48.710;9.392;2022-07-09T02:55:52;12.00;99.70
814;DHT22;389;48.710;9.392;2022-07-09T02:58:17;12.10;99.80
814;DHT22;389;48.710;9.392;2022-07-09T03:00:43;11.90;99.70
814;DHT22;389;48.710;9.392;2022-07-09T03:03:09;11.90;99.70
814;DHT22;389;48.710;9.392;2022-07-09T03:05:35;11.90;99.70
814;DHT22;389;48.710;9.392;2022-07-09T03:08:01;11.90;99.80
814;DHT22;389;48.710;9.392;2022-07-09T03:10:27;11.90;99.80
814;DHT22;389;48.710;9.392;2022-07-09T03:12:53;11.90;99.90
814;DHT22;389;48.710;9.392;2022-07-09T03:15:19;11.90;99.90
814;DHT22;389;48.710;9.392;2022-07-09T03:17:45;11.80;99.90
814;DHT22;389;48.710;9.392;2022-07-09T03:20:11;11.90;99.90
814;DHT22;389;48.710;9.392;2022-07-09T03:22:38;11.80;99.90
814;DHT22;389;48.710;9.392;2022-07-09T03:25:04;11.80;99.90
814;DHT22;389;48.710;9.392;2022-07-09T03:27:30;11.80;99.90
814;DHT22;389;48.710;9.392;2022-07-09T03:29:56;11.90;99.90
814;DHT22;389;48.710;9.392;2022-07-09T03:32:21;11.80;99.90
814;DHT22;389;48.710;9.392;2022-07-09T03:34:48;11.90;99.90
814;DHT22;389;48.710;9.392;2022-07-09T03:37:14;11.80;99.90
814;DHT22;389;48.710;9.392;2022-07-09T03:39:39;11.80;99.90
814;DHT22;389;48.710;9.392;2022-07-09T03:42:05;11.80;99.90
814;DHT22;389;48.710;9.392;2022-07-09T03:44:33;11.80;99.90
814;DHT22;389;48.710;9.392;2022-07-09T03:46:59;11.80;99.90
814;DHT22;389;48.710;9.392;2022-07-09T03:49:25;11.80;99.90
814;DHT22;389;48.710;9.392;2022-07-09T03:51:50;11.90;99.90
814;DHT22;389;48.710;9.392;2022-07-09T03:54:16;11.90;99.90
814;DHT22;389;48.710;9.392;2022-07-09T03:56:41;11.90;99.90
814;DHT22;389;48.710;9.392;2022-07-09T03:59:07;12.00;99.90
814;DHT22;389;48.710;9.392;2022-07-09T04:01:33;12.00;99.90
814;DHT22;389;48.710;9.392;2022-07-09T04:03:58;12.10;99.90
814;DHT22;389;48.710;9.392;2022-07-09T04:06:24;12.10;99.90
814;DHT22;389;48.710;9.392;2022-07-09T04:08:50;12.20;99.90
814;DHT22;389;48.710;9.392;2022-07-09T04:11:16;12.20;99.90
814;DHT22;389;48.710;9.392;2022-07-09T04:13:41;12.20;99.90
814;DHT22;389;48.710;9.392;2022-07-09T04:16:07;12.40;99.90
814;DHT22;389;48.710;9.392;2022-07-09T04:18:34;12.40;99.90
814;DHT22;389;48.710;9.392;2022-07-09T04:21:00;12.40;99.90
814;DHT22;389;48.710;9.392;2022-07-09T04:23:25;12.50;99.90
814;DHT22;389;48.710;9.392;2022-07-09T04:25:52;12.60;99.90
814;DHT22;389;48.710;9.392;2022-07-09T04:28:18;12.70;99.90
814;DHT22;389;48.710;9.392;2022-07-09T04:30:47;12.80;99.90
814;DHT22;389;48.710;9.392;2022-07-09T04:33:13;12.90;99.90
814;DHT22;389;48.710;9.392;2022-07-09T04:35:38;13.00;99.90
814;DHT22;389;48.710;9.392;2022-07-09T04:38:04;13.10;99.90
814;DHT22;389;48.710;9.392;2022-07-09T04:40:30;13.20;99.90
814;DHT22;389;48.710;9.392;2022-07-09T04:42:56;13.30;99.90
814;DHT22;389;48.710;9.392;2022-07-09T04:45:21;13.50;99.90
814;DHT22;389;48.710;9.392;2022-07-09T04:47:47;13.60;99.90
814;DHT22;389;48.710;9.392;2022-07-09T04:50:13;13.70;99.50
814;DHT22;389;48.710;9.392;2022-07-09T04:52:39;13.90;99.00
814;DHT22;389;48.710;9.392;2022-07-09T04:55:05;14.10;99.10
814;DHT22;389;48.710;9.392;2022-07-09T04:57:32;14.40;98.90
814;DHT22;389;48.710;9.392;2022-07-09T05:00:01;14.70;98.10
814;DHT22;389;48.710;9.392;2022-07-09T05:02:27;15.00;97.80
814;DHT22;389;48.710;9.392;2022-07-09T05:04:52;15.30;96.80
814;DHT22;389;48.710;9.392;2022-07-09T05:07:18;15.50;95.90
814;DHT22;389;48.710;9.392;2022-07-09T05:09:44;15.90;95.60
814;DHT22;389;48.710;9.392;2022-07-09T05:12:09;16.00;94.70
814;DHT22;389;48.710;9.392;2022-07-09T05:14:38;16.20;94.50
814;DHT22;389;48.710;9.392;2022-07-09T05:17:04;16.30;93.80
814;DHT22;389;48.710;9.392;2022-07-09T05:19:30;16.70;93.80
814;DHT22;389;48.710;9.392;2022-07-09T05:21:56;17.10;92.60
814;DHT22;389;48.710;9.392;2022-07-09T05:24:21;17.50;92.20
814;DHT22;389;48.710;9.392;2022-07-09T05:26:48;18.00;91.40
814;DHT22;389;48.710;9.392;2022-07-09T05:29:13;18.50;90.30
814;DHT22;389;48.710;9.392;2022-07-09T05:31:39;19.00;89.80
814;DHT22;389;48.710;9.392;2022-07-09T05:34:04;19.20;86.80
814;DHT22;389;48.710;9.392;2022-07-09T05:36:31;19.60;85.60
814;DHT22;389;48.710;9.392;2022-07-09T05:38:57;20.00;84.90
814;DHT22;389;48.710;9.392;2022-07-09T05:41:24;20.40;83.60
814;DHT22;389;48.710;9.392;2022-07-09T05:43:50;20.80;82.30
814;DHT22;389;48.710;9.392;2022-07-09T05:46:16;21.30;80.60
814;DHT22;389;48.710;9.392;2022-07-09T05:48:42;21.70;78.90
814;DHT22;389;48.710;9.392;2022-07-09T05:51:08;22.00;77.80
814;DHT22;389;48.710;9.392;2022-07-09T05:53:34;22.30;77.10
814;DHT22;389;48.710;9.392;2022-07-09T05:55:59;22.60;75.80
814;DHT22;389;48.710;9.392;2022-07-09T05:58:25;22.90;74.70
814;DHT22;389;48.710;9.392;2022-07-09T06:00:50;23.00;71.60
814;DHT22;389;48.710;9.392;2022-07-09T06:03:16;22.90;71.10
814;DHT22;389;48.710;9.392;2022-07-09T06:05:42;23.00;71.70
814;DHT22;389;48.710;9.392;2022-07-09T06:08:07;23.20;70.90
814;DHT22;389;48.710;9.392;2022-07-09T06:10:34;23.40;70.00
814;DHT22;389;48.710;9.392;2022-07-09T06:13:00;23.60;69.10
814;DHT22;389;48.710;9.392;2022-07-09T06:15:25;23.90;68.90
814;DHT22;389;48.710;9.392;2022-07-09T06:17:51;24.00;67.70
814;DHT22;389;48.710;9.392;2022-07-09T06:20:16;24.20;66.80
814;DHT22;389;48.710;9.392;2022-07-09T06:22:42;24.30;66.00
814;DHT22;389;48.710;9.392;2022-07-09T06:25:08;24.60;66.20
814;DHT22;389;48.710;9.392;2022-07-09T06:27:35;24.80;65.50
814;DHT22;389;48.710;9.392;2022-07-09T06:30:00;24.90;64.60
814;DHT22;389;48.710;9.392;2022-07-09T06:32:26;24.70;64.40
814;DHT22;389;48.710;9.392;2022-07-09T06:34:52;24.50;65.00
814;DHT22;389;48.710;9.392;2022-07-09T06:37:17;24.50;64.90
814;DHT22;389;48.710;9.392;2022-07-09T06:39:43;24.40;64.70
814;DHT22;389;48.710;9.392;2022-07-09T06:42:12;24.50;65.40
814;DHT22;389;48.710;9.392;2022-07-09T06:44:39;24.60;65.00
814;DHT22;389;48.710;9.392;2022-07-09T06:47:05;24.80;64.30
814;DHT22;389;48.710;9.392;2022-07-09T06:49:31;24.90;63.90
814;DHT22;389;48.710;9.392;2022-07-09T06:51:57;25.20;63.40
814;DHT22;389;48.710;9.392;2022-07-09T06:54:23;25.30;62.20
814;DHT22;389;48.710;9.392;2022-07-09T06:56:49;25.70;62.20
814;DHT22;389;48.710;9.392;2022-07-09T06:59:14;25.90;61.40
814;DHT22;389;48.710;9.392;2022-07-09T07:01:40;26.10;60.90
814;DHT22;389;48.710;9.392;2022-07-09T07:04:06;26.20;60.90
814;DHT22;389;48.710;9.392;2022-07-09T07:06:31;26.20;60.00
814;DHT22;389;48.710;9.392;2022-07-09T07:08:57;26.10;60.30
814;DHT22;389;48.710;9.392;2022-07-09T07:11:23;26.10;61.00
814;DHT22;389;48.710;9.392;2022-07-09T07:13:49;25.90;60.50
814;DHT22;389;48.710;9.392;2022-07-09T07:16:15;25.60;60.60
814;DHT22;389;48.710;9.392;2022-07-09T07:18:40;25.30;60.60
814;DHT22;389;48.710;9.392;2022-07-09T07:21:06;25.10;60.40
814;DHT22;389;48.710;9.392;2022-07-09T07:23:31;24.80;61.40
814;DHT22;389;48.710;9.392;2022-07-09T07:26:00;24.60;62.50
814;DHT22;389;48.710;9.392;2022-07-09T07:28:26;24.50;63.10
814;DHT22;389;48.710;9.392;2022-07-09T07:30:53;24.40;62.90
814;DHT22;389;48.710;9.392;2022-07-09T07:33:22;24.20;63.70
814;DHT22;389;48.710;9.392;2022-07-09T07:35:48;24.10;63.20
814;DHT22;389;48.710;9.392;2022-07-09T07:38:13;23.90;64.10
814;DHT22;389;48.710;9.392;2022-07-09T07:40:39;23.80;64.40
814;DHT22;389;48.710;9.392;2022-07-09T07:43:05;23.70;65.70
814;DHT22;389;48.710;9.392;2022-07-09T07:45:31;23.70;64.90
814;DHT22;389;48.710;9.392;2022-07-09T07:48:00;23.80;64.90
814;DHT22;389;48.710;9.392;2022-07-09T07:50:25;23.90;64.80
814;DHT22;389;48.710;9.392;2022-07-09T07:52:51;23.90;65.10
814;DHT22;389;48.710;9.392;2022-07-09T07:55:17;23.90;64.50
814;DHT22;389;48.710;9.392;2022-07-09T07:57:43;23.90;64.80
814;DHT22;389;48.710;9.392;2022-07-09T08:00:09;23.90;64.70
814;DHT22;389;48.710;9.392;2022-07-09T08:02:36;23.90;65.20
814;DHT22;389;48.710;9.392;2022-07-09T08:05:02;23.70;64.20
814;DHT22;389;48.710;9.392;2022-07-09T08:07:28;23.70;64.40
814;DHT22;389;48.710;9.392;2022-07-09T08:09:53;23.70;64.70
814;DHT22;389;48.710;9.392;2022-07-09T08:12:19;23.50;64.10
814;DHT22;389;48.710;9.392;2022-07-09T08:14:45;23.40;64.60
814;DHT22;389;48.710;9.392;2022-07-09T08:17:11;23.30;65.20
814;DHT22;389;48.710;9.392;2022-07-09T08:19:37;23.30;65.90
814;DHT22;389;48.710;9.392;2022-07-09T08:22:03;23.40;67.00
814;DHT22;389;48.710;9.392;2022-07-09T08:24:28;23.40;66.90
814;DHT22;389;48.710;9.392;2022-07-09T08:26:54;23.40;67.50
814;DHT22;389;48.710;9.392;2022-07-09T08:29:19;23.60;67.20
814;DHT22;389;48.710;9.392;2022-07-09T08:31:45;23.60;66.70
814;DHT22;389;48.710;9.392;2022-07-09T08:34:11;23.70;66.20
814;DHT22;389;48.710;9.392;2022-07-09T08:36:36;23.80;66.40
814;DHT22;389;48.710;9.392;2022-07-09T08:39:02;23.90;67.10
814;DHT22;389;48.710;9.392;2022-07-09T08:41:28;23.90;67.00
814;DHT22;389;48.710;9.392;2022-07-09T08:43:54;23.90;67.30
814;DHT22;389;48.710;9.392;2022-07-09T08:46:20;23.90;67.30
814;DHT22;389;48.710;9.392;2022-07-09T08:48:46;23.90;66.50
814;DHT22;389;48.710;9.392;2022-07-09T08:51:12;23.80;66.30
814;DHT22;389;48.710;9.392;2022-07-09T08:53:43;23.80;67.10
814;DHT22;389;48.710;9.392;2022-07-09T08:56:10;23.80;67.20
814;DHT22;389;48.710;9.392;2022-07-09T08:58:37;23.80;67.30
814;DHT22;389;48.710;9.392;2022-07-09T09:01:02;23.80;67.70
814;DHT22;389;48.710;9.392;2022-07-09T09:03:30;23.80;67.50
814;DHT22;389;48.710;9.392;2022-07-09T09:06:03;23.80;66.80
814;DHT22;389;48.710;9.392;2022-07-09T09:11:00;23.90;66.30
814;DHT22;389;48.710;9.392;2022-07-09T09:13:25;23.90;66.70
814;DHT22;389;48.710;9.392;2022-07-09T09:16:02;23.90;67.60
814;DHT22;389;48.710;9.392;2022-07-09T09:18:28;23.90;66.80
814;DHT22;389;48.710;9.392;2022-07-09T09:20:54;24.00;67.30
814;DHT22;389;48.710;9.392;2022-07-09T09:23:19;24.00;67.50
814;DHT22;389;48.710;9.392;2022-07-09T09:25:45;24.00;67.00
814;DHT22;389;48.710;9.392;2022-07-09T09:28:11;24.10;67.60
814;DHT22;389;48.710;9.392;2022-07-09T09:30:43;24.10;67.70
814;DHT22;389;48.710;9.392;2022-07-09T09:33:13;24.20;66.40
814;DHT22;389;48.710;9.392;2022-07-09T09:35:43;24.30;65.50
814;DHT22;389;48.710;9.392;2022-07-09T09:38:09;24.40;66.10
814;DHT22;389;48.710;9.392;2022-07-09T09:40:35;24.50;66.10
814;DHT22;389;48.710;9.392;2022-07-09T09:43:03;24.60;66.20
814;DHT22;389;48.710;9.392;2022-07-09T09:45:29;24.80;64.60
814;DHT22;389;48.710;9.392;2022-07-09T09:47:55;24.80;64.20
814;DHT22;389;48.710;9.392;2022-07-09T09:50:24;24.80;64.00
814;DHT22;389;48.710;9.392;2022-07-09T09:52:52;24.80;64.40
814;DHT22;389;48.710;9.392;2022-07-09T09:55:20;25.00;65.70
814;DHT22;389;48.710;9.392;2022-07-09T09:57:48;25.00;65.60
814;DHT22;389;48.710;9.392;2022-07-09T10:00:15;25.10;63.70
814;DHT22;389;48.710;9.392;2022-07-09T10:02:46;25.20;63.10
814;DHT22;389;48.710;9.392;2022-07-09T10:05:12;25.20;63.60
814;DHT22;389;48.710;9.392;2022-07-09T10:07:40;25.20;61.90
814;DHT22;389;48.710;9.392;2022-07-09T10:10:07;25.20;62.20
814;DHT22;389;48.710;9.392;2022-07-09T10:12:36;25.20;61.30
814;DHT22;389;48.710;9.392;2022-07-09T10:15:08;25.20;61.20
814;DHT22;389;48.710;9.392;2022-07-09T10:17:40;25.10;60.50
814;DHT22;389;48.710;9.392;2022-07-09T10:20:09;25.10;59.70
814;DHT22;389;48.710;9.392;2022-07-09T10:22:37;25.10;59.40
814;DHT22;389;48.710;9.392;2022-07-09T10:25:06;25.20;59.50
814;DHT22;389;48.710;9.392;2022-07-09T10:27:47;25.30;59.80
814;DHT22;389;48.710;9.392;2022-07-09T10:30:26;25.50;59.20
814;DHT22;389;48.710;9.392;2022-07-09T10:33:07;25.60;59.60
814;DHT22;389;48.710;9.392;2022-07-09T10:35:44;25.80;60.80
814;DHT22;389;48.710;9.392;2022-07-09T10:38:11;26.00;60.60
814;DHT22;389;48.710;9.392;2022-07-09T10:40:38;26.10;60.70
814;DHT22;389;48.710;9.392;2022-07-09T10:43:04;26.20;60.70
814;DHT22;389;48.710;9.392;2022-07-09T10:48:09;26.40;60.20
814;DHT22;389;48.710;9.392;2022-07-09T10:50:42;26.50;59.50
814;DHT22;389;48.710;9.392;2022-07-09T10:53:12;26.60;59.30
814;DHT22;389;48.710;9.392;2022-07-09T10:55:41;26.80;58.70
814;DHT22;389;48.710;9.392;2022-07-09T10:58:17;26.90;59.10
814;DHT22;389;48.710;9.392;2022-07-09T11:00:42;27.00;59.30
814;DHT22;389;48.710;9.392;2022-07-09T11:03:08;27.10;58.10
814;DHT22;389;48.710;9.392;2022-07-09T11:05:43;27.20;57.50
814;DHT22;389;48.710;9.392;2022-07-09T11:08:10;27.30;57.90
814;DHT22;389;48.710;9.392;2022-07-09T11:10:37;27.30;58.00
814;DHT22;389;48.710;9.392;2022-07-09T11:13:04;27.50;58.10
814;DHT22;389;48.710;9.392;2022-07-09T11:15:31;27.70;57.70
814;DHT22;389;48.710;9.392;2022-07-09T11:20:30;28.20;57.30
814;DHT22;389;48.710;9.392;2022-07-09T11:22:57;28.40;56.00
814;DHT22;389;48.710;9.392;2022-07-09T11:25:29;28.70;55.60
814;DHT22;389;48.710;9.392;2022-07-09T11:27:56;28.90;55.00
814;DHT22;389;48.710;9.392;2022-07-09T11:30:22;29.20;54.90
814;DHT22;389;48.710;9.392;2022-07-09T11:32:48;29.50;53.40
814;DHT22;389;48.710;9.392;2022-07-09T11:35:27;29.60;53.10
814;DHT22;389;48.710;9.392;2022-07-09T11:37:54;29.60;52.80
814;DHT22;389;48.710;9.392;2022-07-09T11:40:21;29.50;52.10
814;DHT22;389;48.710;9.392;2022-07-09T11:42:46;29.30;51.90
814;DHT22;389;48.710;9.392;2022-07-09T11:45:12;29.20;52.80
814;DHT22;389;48.710;9.392;2022-07-09T11:47:41;29.20;53.20
814;DHT22;389;48.710;9.392;2022-07-09T11:50:11;29.20;53.70
814;DHT22;389;48.710;9.392;2022-07-09T11:52:49;29.00;53.40
814;DHT22;389;48.710;9.392;2022-07-09T11:55:19;28.90;53.10
814;DHT22;389;48.710;9.392;2022-07-09T11:57:56;28.80;53.60
814;DHT22;389;48.710;9.392;2022-07-09T12:00:26;28.80;53.90
814;DHT22;389;48.710;9.392;2022-07-09T12:02:57;28.80;53.90
814;DHT22;389;48.710;9.392;2022-07-09T12:05:33;28.70;53.60
814;DHT22;389;48.710;9.392;2022-07-09T12:08:03;28.70;53.70
814;DHT22;389;48.710;9.392;2022-07-09T12:10:32;28.70;54.20
814;DHT22;389;48.710;9.392;2022-07-09T12:12:58;28.90;53.80
814;DHT22;389;48.710;9.392;2022-07-09T12:15:24;29.10;54.10
814;DHT22;389;48.710;9.392;2022-07-09T12:17:57;29.50;53.40
814;DHT22;389;48.710;9.392;2022-07-09T12:20:25;29.70;52.60
814;DHT22;389;48.710;9.392;2022-07-09T12:22:51;29.90;52.30
814;DHT22;389;48.710;9.392;2022-07-09T12:25:18;30.00;52.10
814;DHT22;389;48.710;9.392;2022-07-09T12:27:44;30.00;52.10
814;DHT22;389;48.710;9.392;2022-07-09T12:30:12;29.80;51.30
814;DHT22;389;48.710;9.392;2022-07-09T12:32:38;29.70;51.00
814;DHT22;389;48.710;9.392;2022-07-09T12:35:04;29.60;51.40
814;DHT22;389;48.710;9.392;2022-07-09T12:37:30;29.70;51.60
814;DHT22;389;48.710;9.392;2022-07-09T12:39:56;29.70;51.70
814;DHT22;389;48.710;9.392;2022-07-09T12:42:21;29.70;51.30
814;DHT22;389;48.710;9.392;2022-07-09T12:44:48;29.70;50.90
814;DHT22;389;48.710;9.392;2022-07-09T12:47:14;29.60;51.10
814;DHT22;389;48.710;9.392;2022-07-09T12:49:39;29.50;50.70
814;DHT22;389;48.710;9.392;2022-07-09T12:52:05;29.40;50.90
814;DHT22;389;48.710;9.392;2022-07-09T12:54:31;29.20;51.70
814;DHT22;389;48.710;9.392;2022-07-09T12:56:57;29.20;52.70
814;DHT22;389;48.710;9.392;2022-07-09T12:59:22;29.20;52.90
814;DHT22;389;48.710;9.392;2022-07-09T13:01:48;29.10;51.80
814;DHT22;389;48.710;9.392;2022-07-09T13:04:14;29.00;52.00
814;DHT22;389;48.710;9.392;2022-07-09T13:06:41;29.00;51.80
814;DHT22;389;48.710;9.392;2022-07-09T13:09:08;28.90;51.90
814;DHT22;389;48.710;9.392;2022-07-09T13:11:35;29.00;52.00
814;DHT22;389;48.710;9.392;2022-07-09T13:14:01;29.10;51.50
814;DHT22;389;48.710;9.392;2022-07-09T13:16:26;29.10;51.90
814;DHT22;389;48.710;9.392;2022-07-09T13:18:52;29.10;52.70
814;DHT22;389;48.710;9.392;2022-07-09T13:21:18;29.00;52.60
814;DHT22;389;48.710;9.392;2022-07-09T13:23:45;28.90;52.70
814;DHT22;389;48.710;9.392;2022-07-09T13:26:10;28.80;52.80
814;DHT22;389;48.710;9.392;2022-07-09T13:28:37;28.70;52.90
814;DHT22;389;48.710;9.392;2022-07-09T13:31:02;28.70;53.60
814;DHT22;389;48.710;9.392;2022-07-09T13:33:28;28.70;52.80
814;DHT22;389;48.710;9.392;2022-07-09T13:35:54;28.80;53.00
814;DHT22;389;48.710;9.392;2022-07-09T13:38:20;28.90;52.40
814;DHT22;389;48.710;9.392;2022-07-09T13:40:46;29.20;52.40
814;DHT22;389;48.710;9.392;2022-07-09T13:43:12;29.50;51.90
814;DHT22;389;48.710;9.392;2022-07-09T13:45:37;29.70;52.00
814;DHT22;389;48.710;9.392;2022-07-09T13:48:03;30.00;52.00
814;DHT22;389;48.710;9.392;2022-07-09T13:50:29;30.20;50.70
814;DHT22;389;48.710;9.392;2022-07-09T13:52:54;30.30;50.30
814;DHT22;389;48.710;9.392;2022-07-09T13:55:20;30.30;50.10
814;DHT22;389;48.710;9.392;2022-07-09T13:57:45;30.30;50.20
814;DHT22;389;48.710;9.392;2022-07-09T14:00:11;30.20;50.00
814;DHT22;389;48.710;9.392;2022-07-09T14:02:37;30.30;50.60
814;DHT22;389;48.710;9.392;2022-07-09T14:05:05;30.20;50.10
814;DHT22;389;48.710;9.392;2022-07-09T14:07:31;30.20;50.00
814;DHT22;389;48.710;9.392;2022-07-09T14:09:57;30.30;50.20
814;DHT22;389;48.710;9.392;2022-07-09T14:12:23;30.30;49.90
814;DHT22;389;48.710;9.392;2022-07-09T14:14:52;30.30;49.90
814;DHT22;389;48.710;9.392;2022-07-09T14:17:18;30.30;49.70
814;DHT22;389;48.710;9.392;2022-07-09T14:19:44;30.20;49.80
814;DHT22;389;48.710;9.392;2022-07-09T14:22:10;30.20;49.40
814;DHT22;389;48.710;9.392;2022-07-09T14:24:35;30.20;49.80
814;DHT22;389;48.710;9.392;2022-07-09T14:27:01;30.30;50.50
814;DHT22;389;48.710;9.392;2022-07-09T14:29:28;30.30;49.50
814;DHT22;389;48.710;9.392;2022-07-09T14:31:53;30.20;50.00
814;DHT22;389;48.710;9.392;2022-07-09T14:34:19;30.20;49.70
814;DHT22;389;48.710;9.392;2022-07-09T14:36:45;30.20;49.00
814;DHT22;389;48.710;9.392;2022-07-09T14:39:10;30.10;49.30
814;DHT22;389;48.710;9.392;2022-07-09T14:41:36;30.00;49.50
814;DHT22;389;48.710;9.392;2022-07-09T14:44:05;30.00;50.10
814;DHT22;389;48.710;9.392;2022-07-09T14:46:30;29.80;50.10
814;DHT22;389;48.710;9.392;2022-07-09T14:48:56;29.70;49.80
814;DHT22;389;48.710;9.392;2022-07-09T14:51:22;29.50;49.70
814;DHT22;389;48.710;9.392;2022-07-09T14:53:47;29.50;50.10
814;DHT22;389;48.710;9.392;2022-07-09T14:56:13;29.50;50.20
814;DHT22;389;48.710;9.392;2022-07-09T14:58:39;29.50;49.90
814;DHT22;389;48.710;9.392;2022-07-09T15:01:05;29.50;50.20
814;DHT22;389;48.710;9.392;2022-07-09T15:03:30;29.50;50.30
814;DHT22;389;48.710;9.392;2022-07-09T15:05:56;29.50;50.20
814;DHT22;389;48.710;9.392;2022-07-09T15:08:21;29.50;50.70
814;DHT22;389;48.710;9.392;2022-07-09T15:10:47;29.40;50.40
814;DHT22;389;48.710;9.392;2022-07-09T15:13:13;29.40;49.90
814;DHT22;389;48.710;9.392;2022-07-09T15:15:39;29.50;49.90
814;DHT22;389;48.710;9.392;2022-07-09T15:18:05;29.60;50.10
814;DHT22;389;48.710;9.392;2022-07-09T15:20:31;29.80;50.10
814;DHT22;389;48.710;9.392;2022-07-09T15:22:57;30.10;50.00
814;DHT22;389;48.710;9.392;2022-07-09T15:25:24;30.30;49.80
814;DHT22;389;48.710;9.392;2022-07-09T15:27:50;30.40;48.60
814;DHT22;389;48.710;9.392;2022-07-09T15:30:15;30.40;48.80
814;DHT22;389;48.710;9.392;2022-07-09T15:32:41;30.20;48.50
814;DHT22;389;48.710;9.392;2022-07-09T15:35:08;30.00;48.90
814;DHT22;389;48.710;9.392;2022-07-09T15:37:34;29.80;48.80
814;DHT22;389;48.710;9.392;2022-07-09T15:39:59;29.70;48.60
814;DHT22;389;48.710;9.392;2022-07-09T15:42:25;29.50;49.00
814;DHT22;389;48.710;9.392;2022-07-09T15:44:51;29.40;50.40
814;DHT22;389;48.710;9.392;2022-07-09T15:47:17;29.10;50.30
814;DHT22;389;48.710;9.392;2022-07-09T15:49:43;29.00;50.70
814;DHT22;389;48.710;9.392;2022-07-09T15:52:09;28.80;50.80
814;DHT22;389;48.710;9.392;2022-07-09T15:54:35;28.80;51.40
814;DHT22;389;48.710;9.392;2022-07-09T15:57:00;28.80;51.60
814;DHT22;389;48.710;9.392;2022-07-09T15:59:26;28.80;52.10
814;DHT22;389;48.710;9.392;2022-07-09T16:01:51;28.90;51.50
814;DHT22;389;48.710;9.392;2022-07-09T16:04:17;28.80;51.70
814;DHT22;389;48.710;9.392;2022-07-09T16:06:42;28.80;52.00
814;DHT22;389;48.710;9.392;2022-07-09T16:09:08;28.90;51.70
814;DHT22;389;48.710;9.392;2022-07-09T16:11:34;29.00;50.10
814;DHT22;389;48.710;9.392;2022-07-09T16:14:18;29.00;49.20
814;DHT22;389;48.710;9.392;2022-07-09T16:16:44;28.90;49.70
814;DHT22;389;48.710;9.392;2022-07-09T16:19:09;28.80;49.90
814;DHT22;389;48.710;9.392;2022-07-09T16:21:35;28.70;50.30
814;DHT22;389;48.710;9.392;2022-07-09T16:24:01;28.60;51.00
814;DHT22;389;48.710;9.392;2022-07-09T16:26:26;28.50;50.90
814;DHT22;389;48.710;9.392;2022-07-09T16:28:52;28.40;51.40
814;DHT22;389;48.710;9.392;2022-07-09T16:31:18;28.40;51.60
814;DHT22;389;48.710;9.392;2022-07-09T16:33:43;28.50;51.60
814;DHT22;389;48.710;9.392;2022-07-09T16:36:12;28.50;51.40
814;DHT22;389;48.710;9.392;2022-07-09T16:38:38;28.50;51.50